Charles M. Schulz Sonoma County Airport
KSTS : now visible

Airfield :











YOU CAN JOIN US ON...

 
LOGIN :

Register | Disclaimer

   EN    FR    IT 

 









Legend :    VFR   Marginal VFR   IFR   Intensive IFR   Very Intensive IFR
Visi :
Ceiling :
>= 8 km
>= 3000ft
5 to 8 km
1000 to 3000 ft
1500m to 5 km
500 to 1000 ft
800 to 1500m
200 to 500 ft
< 800m
< 200 ft
Symbols :   Thunderstorms  Fog  Heavy snow  Heavy precipitations  Wind > 20 kt







- Airport Elevation : 128 ft


KSTS - Charles M. Schulz Sonoma County

CURRENT METAR :
  • 220053Z 20005KT 10SM CLR 28/07 A2987 RMK AO2 SLP106 T02830072

EXPIRED METARs :
  • 220024Z 21007KT 10SM CLR 29/07 A2986 RMK AO2 T02890072
  • 212353Z 25011KT 10SM CLR 29/07 A2986 RMK AO2 SLP104 T02940067 10328 20267 56013
  • 212253Z 25013KT 10SM CLR 31/07 A2986 RMK AO2 SLP105 T03060072

TAF KSTS
Valid from the 22 at 00:00 until the 23 at 00:00 UTC


212339Z 2200/2224 25013KT P6SM SKC
FM220100 VRB05KT P6SM SKC
FM220900 00000KT P6SM SKC
TEMPO 2212/2216 1/2SM FG VV002
FM221800 23006KT P6SM SKC
FM222200 25010KT P6SM SKC
No reported NOTAMs for that airfield.



MET'MAP, your aeronautical weather chart ! - Copyright ORBIFLY December 2007 - Disclaimer

ORBIFLY MET'MAP TEAM :

Programming & Development : Alexandra Zaïnal
Concept & Development : Baudouin d'Aumeries
Co-Development & Prog : Marc-Olivier Méhu
Technical & hardware support : Manuel Goepfert

Contact : metmap@orbifly.com




SOURCES & CREDITS :

   NOAA       Earth
Advisory